Time;durP1;ratioP1;P1;durP2;ratioP2;P2;SDS_P1;SDS_P2;PMS_P1;PMS_P2;Temp;Humidity;BMP_temperature;BMP_pressure;BME280_temperature;BME280_humidity;BME280_pressure;Samples;Min_cycle;Max_cycle;Signal;HPM_P1;HPM_P2
2022/03/05 00:00:15;;;;;;;31.25;14.63;;;;;;;1.08;70.94;101822.66;5051906;28;20116;-78
2022/03/05 00:02:40;;;;;;;30.38;14.15;;;;;;;1.07;71.12;101820.03;5033127;28;20025;-78
2022/03/05 00:05:06;;;;;;;28.20;12.95;;;;;;;1.03;70.84;101820.09;5050496;28;20045;-78
2022/03/05 00:07:32;;;;;;;30.75;12.65;;;;;;;0.99;71.01;101821.03;5050759;28;20032;-78
2022/03/05 00:09:57;;;;;;;28.00;13.23;;;;;;;0.94;71.60;101822.91;5033372;28;20065;-78
2022/03/05 00:12:22;;;;;;;30.08;13.23;;;;;;;0.93;71.41;101822.94;5049975;28;20112;-78
2022/03/05 00:14:48;;;;;;;28.75;12.90;;;;;;;0.90;71.73;101826.50;5034273;28;20029;-78
2022/03/05 00:17:13;;;;;;;29.75;12.35;;;;;;;0.81;71.90;101830.19;5050650;28;20024;-78
2022/03/05 00:19:38;;;;;;;32.20;14.20;;;;;;;0.77;72.19;101836.41;5033351;28;20029;-79
2022/03/05 00:22:03;;;;;;;31.02;13.52;;;;;;;0.72;72.33;101833.00;5051192;28;20048;-78
2022/03/05 00:24:29;;;;;;;32.72;14.45;;;;;;;0.65;72.31;101834.84;5051092;28;20037;-78
2022/03/05 00:26:54;;;;;;;29.92;13.68;;;;;;;0.58;72.73;101833.19;5031552;28;20029;-78
2022/03/05 00:29:20;;;;;;;33.30;12.85;;;;;;;0.56;72.95;101835.00;5040545;28;20082;-79
2022/03/05 00:31:45;;;;;;;32.15;14.15;;;;;;;0.56;72.75;101829.72;5050564;28;20111;-79
2022/03/05 00:34:11;;;;;;;32.25;15.77;;;;;;;0.57;72.78;101830.59;5052955;28;20036;-78
2022/03/05 00:36:37;;;;;;;31.40;13.95;;;;;;;0.53;72.66;101829.78;5050270;28;20031;-79
2022/03/05 00:39:03;;;;;;;30.83;14.65;;;;;;;0.49;73.46;101817.50;5033435;28;20115;-79
2022/03/05 00:41:29;;;;;;;32.45;13.48;;;;;;;0.50;73.31;101821.88;5031291;28;20116;-79
2022/03/05 00:43:54;;;;;;;33.95;15.75;;;;;;;0.49;73.28;101821.00;5050696;28;20032;-79
2022/03/05 00:46:19;;;;;;;34.38;15.60;;;;;;;0.51;73.19;101820.97;5050193;28;20044;-79
2022/03/05 00:48:44;;;;;;;38.13;15.93;;;;;;;0.50;73.50;101825.41;5032811;28;20033;-78
2022/03/05 00:51:09;;;;;;;30.92;14.13;;;;;;;0.52;73.30;101825.38;5050896;28;20032;-78
2022/03/05 00:53:35;;;;;;;30.70;14.50;;;;;;;0.52;73.22;101825.38;5051233;28;20040;-78
2022/03/05 00:56:00;;;;;;;34.90;16.40;;;;;;;0.52;73.55;101817.44;5025416;28;20081;-78
2022/03/05 00:58:25;;;;;;;31.75;14.98;;;;;;;0.50;73.21;101824.53;5025618;28;20040;-78
2022/03/05 01:00:52;;;;;;;35.53;14.82;;;;;;;0.50;73.72;101819.25;5030632;28;20032;-79
2022/03/05 01:03:17;;;;;;;32.83;15.65;;;;;;;0.48;73.58;101821.91;5055825;28;20039;-78
2022/03/05 01:05:43;;;;;;;35.33;17.27;;;;;;;0.48;73.24;101826.31;5050347;28;20480;-79
2022/03/05 01:08:09;;;;;;;32.75;14.15;;;;;;;0.45;73.57;101832.50;5017080;28;20053;-79
2022/03/05 01:10:34;;;;;;;36.63;16.63;;;;;;;0.41;73.54;101825.56;5049993;28;20033;-79
2022/03/05 01:13:00;;;;;;;30.88;14.95;;;;;;;0.37;73.62;101818.56;5030804;28;20534;-79
2022/03/05 01:15:25;;;;;;;33.03;17.30;;;;;;;0.29;73.81;101820.44;5049587;28;20028;-79
2022/03/05 01:17:50;;;;;;;31.65;13.80;;;;;;;0.27;73.98;101815.16;5046227;28;20021;-79
2022/03/05 01:20:16;;;;;;;35.38;15.90;;;;;;;0.24;74.33;101817.00;5031773;28;20032;-79
2022/03/05 01:22:41;;;;;;;31.80;15.35;;;;;;;0.20;74.38;101816.16;5050935;28;20115;-79
2022/03/05 01:25:07;;;;;;;33.60;15.75;;;;;;;0.17;74.26;101816.19;5031256;28;20029;-79
2022/03/05 01:27:32;;;;;;;33.38;15.38;;;;;;;0.14;74.67;101818.88;5049250;28;20028;-79
2022/03/05 01:29:57;;;;;;;36.63;17.00;;;;;;;0.12;73.87;101820.69;5050711;28;20033;-79
2022/03/05 01:32:23;;;;;;;36.67;17.05;;;;;;;0.04;74.07;101826.06;5032791;28;20029;-79
2022/03/05 01:34:48;;;;;;;34.53;16.40;;;;;;;-0.02;74.79;101818.22;5033313;28;20140;-79
2022/03/05 01:37:13;;;;;;;32.58;15.68;;;;;;;-0.10;74.55;101823.63;5047852;28;20472;-79
2022/03/05 01:39:41;;;;;;;35.28;16.00;;;;;;;-0.13;75.28;101823.66;5050341;28;20025;-79
2022/03/05 01:42:06;;;;;;;31.80;16.65;;;;;;;-0.14;75.27;101827.19;5047917;28;20033;-79
2022/03/05 01:44:32;;;;;;;32.72;16.02;;;;;;;-0.17;75.25;101819.31;5032656;28;20032;-79
2022/03/05 01:47:01;;;;;;;37.38;17.52;;;;;;;-0.20;75.59;101830.78;5031343;28;20086;-79
2022/03/05 01:49:26;;;;;;;31.88;15.40;;;;;;;-0.23;75.12;101822.03;5026335;28;20381;-79
2022/03/05 01:51:51;;;;;;;33.38;15.73;;;;;;;-0.22;75.63;101826.41;5050235;28;20042;-79
2022/03/05 01:54:17;;;;;;;32.60;16.35;;;;;;;-0.28;75.46;101823.84;5049625;28;20538;-79
2022/03/05 01:56:42;;;;;;;32.53;16.40;;;;;;;-0.27;75.76;101823.81;5032259;28;20059;-79
2022/03/05 01:59:08;;;;;;;33.47;15.27;;;;;;;-0.27;75.44;101828.25;5048668;28;20029;-79
2022/03/05 02:01:33;;;;;;;34.03;17.42;;;;;;;-0.27;75.67;101825.59;5050625;28;20078;-81
2022/03/05 02:03:59;;;;;;;37.33;17.50;;;;;;;-0.30;75.94;101820.38;5050927;28;20479;-80
2022/03/05 02:06:25;;;;;;;34.67;16.70;;;;;;;-0.37;76.46;101823.09;5043858;28;20123;-80
2022/03/05 02:08:50;;;;;;;39.60;16.98;;;;;;;-0.39;75.86;101816.94;5049307;28;20052;-80
2022/03/05 02:11:16;;;;;;;37.72;17.13;;;;;;;-0.41;75.98;101828.41;5048223;28;20052;-80
2022/03/05 02:13:42;;;;;;;37.17;15.73;;;;;;;-0.49;76.12;101825.84;5050632;28;20071;-80
2022/03/05 02:16:07;;;;;;;32.35;16.83;;;;;;;-0.51;76.09;101824.13;5049758;28;20028;-81
2022/03/05 02:18:33;;;;;;;38.78;17.30;;;;;;;-0.55;76.22;101816.22;5050279;28;20464;-80
2022/03/05 02:20:58;;;;;;;40.97;18.50;;;;;;;-0.51;76.34;101819.72;5049162;28;20056;-80
2022/03/05 02:23:23;;;;;;;38.78;18.90;;;;;;;-0.47;76.56;101810.00;5048042;28;20525;-80
2022/03/05 02:25:57;;;;;;;36.40;17.75;;;;;;;-0.39;76.81;101811.66;5042277;28;20028;-80
2022/03/05 02:28:24;;;;;;;38.13;17.48;;;;;;;-0.39;76.73;101806.38;5049172;28;20024;-81
2022/03/05 02:30:50;;;;;;;40.78;18.92;;;;;;;-0.32;76.71;101808.91;5049070;28;20102;-81
2022/03/05 02:33:15;;;;;;;36.17;18.40;;;;;;;-0.32;76.64;101806.28;5036802;28;20032;-80
2022/03/05 02:35:44;;;;;;;31.08;17.13;;;;;;;-0.33;76.58;101796.63;5032663;28;20468;-80
2022/03/05 02:38:20;;;;;;;34.65;17.85;;;;;;;-0.33;76.50;101800.13;5049762;28;20373;-81
2022/03/05 02:40:47;;;;;;;37.25;17.77;;;;;;;-0.38;76.60;101801.94;5047018;28;20044;-80
2022/03/05 02:43:13;;;;;;;35.25;16.92;;;;;;;-0.40;76.49;101803.75;5041731;28;20393;-80
2022/03/05 02:45:39;;;;;;;39.38;18.30;;;;;;;-0.47;76.27;101807.34;5045872;28;20123;-80
2022/03/05 02:48:08;;;;;;;38.72;18.65;;;;;;;-0.52;76.46;101817.97;5048663;28;20119;-80
2022/03/05 02:50:33;;;;;;;35.60;17.60;;;;;;;-0.59;76.26;101814.50;5048700;28;20055;-80
2022/03/05 02:52:59;;;;;;;38.33;18.48;;;;;;;-0.62;76.36;101818.97;5031739;28;20029;-80
2022/03/05 02:55:24;;;;;;;36.88;16.77;;;;;;;-0.69;76.21;101812.88;5030158;28;20051;-81
2022/03/05 02:57:50;;;;;;;39.83;19.30;;;;;;;-0.73;76.64;101812.03;5049205;28;20510;-80
2022/03/05 03:00:15;;;;;;;34.00;16.55;;;;;;;-0.79;76.87;101812.13;5049726;28;20106;-80
2022/03/05 03:02:41;;;;;;;35.60;16.58;;;;;;;-0.84;76.94;101808.63;5031178;28;20028;-81
2022/03/05 03:05:06;;;;;;;40.25;20.00;;;;;;;-0.86;76.83;101810.44;5034650;28;20107;-80
2022/03/05 03:07:32;;;;;;;40.78;17.20;;;;;;;-0.94;77.28;101812.25;5048366;28;20039;-81
2022/03/05 03:09:58;;;;;;;35.65;18.08;;;;;;;-0.98;76.32;101803.50;5029675;28;20558;-81
2022/03/05 03:12:25;;;;;;;35.15;17.05;;;;;;;-1.02;77.06;101812.34;5048811;28;20071;-81
2022/03/05 03:14:50;;;;;;;40.25;18.38;;;;;;;-1.07;77.15;101812.38;5048218;28;20025;-80
2022/03/05 03:17:17;;;;;;;34.78;16.15;;;;;;;-1.10;77.13;101808.88;5029801;28;20258;-80
2022/03/05 03:19:42;;;;;;;35.85;19.30;;;;;;;-1.17;76.93;101808.09;5030356;28;20020;-80
2022/03/05 03:22:07;;;;;;;39.78;18.73;;;;;;;-1.21;77.56;101806.34;5017737;28;20029;-81
2022/03/05 03:24:32;;;;;;;34.50;17.83;;;;;;;-1.23;77.18;101800.19;5030064;28;20108;-80
2022/03/05 03:26:58;;;;;;;35.28;16.75;;;;;;;-1.23;77.33;101810.75;5033821;28;20024;-80
2022/03/05 03:29:23;;;;;;;36.97;18.00;;;;;;;-1.26;77.35;101810.78;5033032;28;20384;-80
2022/03/05 03:31:48;;;;;;;39.85;17.90;;;;;;;-1.26;76.96;101805.50;5033521;28;20207;-80
2022/03/05 03:34:14;;;;;;;35.28;16.27;;;;;;;-1.24;77.09;101801.97;5052871;28;20029;-80
2022/03/05 03:36:39;;;;;;;36.45;17.90;;;;;;;-1.29;77.41;101800.25;5033528;28;20499;-80
2022/03/05 03:39:04;;;;;;;36.72;17.25;;;;;;;-1.38;77.25;101798.59;5051063;28;20070;-80
2022/03/05 03:41:29;;;;;;;36.63;16.90;;;;;;;-1.47;76.92;101801.31;5049262;28;20480;-81
2022/03/05 03:43:55;;;;;;;40.45;18.45;;;;;;;-1.53;77.26;101794.31;5033900;28;20025;-81
2022/03/05 03:46:20;;;;;;;37.40;16.38;;;;;;;-1.57;77.24;101800.50;5033111;28;20028;-81
2022/03/05 03:48:45;;;;;;;36.35;18.15;;;;;;;-1.62;77.95;101799.66;5051473;28;20400;-80
2022/03/05 03:51:10;;;;;;;35.42;16.50;;;;;;;-1.61;78.22;101796.13;5051512;28;20063;-81
2022/03/05 03:53:36;;;;;;;32.88;16.35;;;;;;;-1.67;77.55;101798.81;5032890;28;20025;-80
2022/03/05 03:56:01;;;;;;;35.08;19.00;;;;;;;-1.67;77.82;101804.97;5050449;28;20544;-81
2022/03/05 03:58:27;;;;;;;34.13;17.23;;;;;;;-1.70;77.84;101801.47;5051430;28;20032;-81
2022/03/05 04:00:52;;;;;;;34.80;17.50;;;;;;;-1.79;77.42;101799.78;5032625;28;20032;-81
2022/03/05 04:03:17;;;;;;;32.92;16.75;;;;;;;-1.82;78.20;101798.03;5050628;28;20104;-81
2022/03/05 04:05:43;;;;;;;35.75;16.75;;;;;;;-1.84;78.00;101794.53;4996506;28;1040204;-81
2022/03/05 04:10:52;;;;;;;35.53;18.50;;;;;;;-1.80;78.79;101798.91;5052059;28;20086;-80
2022/03/05 04:13:18;;;;;;;36.30;17.98;;;;;;;-1.85;78.43;101799.81;5034835;28;20115;-80
2022/03/05 04:15:45;;;;;;;37.70;16.50;;;;;;;-1.85;78.52;101800.69;5052317;28;20035;-80
2022/03/05 04:18:10;;;;;;;38.38;18.00;;;;;;;-1.88;78.16;101800.72;5049718;28;20490;-80
2022/03/05 04:20:35;;;;;;;40.80;18.25;;;;;;;-1.88;78.70;101800.72;5033564;28;20025;-80
2022/03/05 04:23:01;;;;;;;38.58;17.80;;;;;;;-1.91;78.67;101808.63;5052194;28;20025;-80
2022/03/05 04:25:26;;;;;;;37.08;16.20;;;;;;;-1.94;78.75;101798.97;5031919;28;20246;-80
2022/03/05 04:27:52;;;;;;;34.78;18.30;;;;;;;-1.94;78.97;101803.38;5018185;28;20052;-80
2022/03/05 04:30:17;;;;;;;38.92;17.88;;;;;;;-1.97;78.35;101803.41;5033717;28;20462;-81
2022/03/05 04:32:43;;;;;;;41.95;18.10;;;;;;;-1.98;78.15;101804.28;5033718;28;20032;-80
2022/03/05 04:35:09;;;;;;;36.05;17.85;;;;;;;-1.98;79.23;101805.19;5043178;28;20495;-81
2022/03/05 04:37:34;;;;;;;36.03;17.65;;;;;;;-1.98;78.44;101813.09;5052212;28;20396;-80
2022/03/05 04:40:00;;;;;;;38.83;18.05;;;;;;;-2.00;78.82;101811.34;5051079;28;20035;-80
2022/03/05 04:42:26;;;;;;;38.33;17.33;;;;;;;-2.02;78.86;101815.72;5032803;28;20231;-81
2022/03/05 04:44:51;;;;;;;40.08;18.50;;;;;;;-2.00;78.60;101821.88;5033789;28;20032;-80
2022/03/05 04:47:16;;;;;;;36.30;18.77;;;;;;;-2.02;79.12;101813.09;5050854;28;20476;-80
2022/03/05 04:49:41;;;;;;;40.63;17.58;;;;;;;-2.04;79.42;101821.00;5051452;28;20476;-81
2022/03/05 04:52:07;;;;;;;33.70;17.00;;;;;;;-2.05;78.69;101819.25;5051929;28;20047;-81
2022/03/05 04:54:33;;;;;;;36.70;17.33;;;;;;;-2.08;78.51;101816.63;5033541;28;20059;-81
2022/03/05 04:56:59;;;;;;;37.78;16.58;;;;;;;-2.09;79.22;101820.16;5050570;28;20083;-80
2022/03/05 04:59:24;;;;;;;37.33;18.30;;;;;;;-2.12;79.14;101812.28;5045177;28;20017;-80
2022/03/05 05:01:49;;;;;;;41.03;18.40;;;;;;;-2.11;79.83;101825.44;5050243;28;20036;-80
2022/03/05 05:04:15;;;;;;;41.00;18.98;;;;;;;-2.06;80.11;101827.19;5052217;28;20035;-80
2022/03/05 05:06:40;;;;;;;37.17;18.33;;;;;;;-2.02;79.56;101819.25;5051760;28;20424;-80
2022/03/05 05:09:05;;;;;;;38.10;18.15;;;;;;;-1.99;79.69;101815.69;5050770;28;20036;-80
2022/03/05 05:11:31;;;;;;;40.28;20.30;;;;;;;-1.95;80.13;101825.34;5032108;28;20037;-80
2022/03/05 05:13:56;;;;;;;39.10;17.35;;;;;;;-1.90;79.86;101825.31;5033398;28;20116;-80
2022/03/05 05:16:21;;;;;;;40.55;18.35;;;;;;;-1.91;79.25;101818.31;5031456;28;20472;-80
2022/03/05 05:21:31;;;;;;;40.42;16.77;;;;;;;-1.92;79.32;101819.19;5038187;28;20097;-80
2022/03/05 05:23:56;;;;;;;33.90;17.65;;;;;;;-1.93;79.25;101818.31;5033473;28;20120;-80
2022/03/05 05:26:22;;;;;;;35.75;17.13;;;;;;;-1.91;79.97;101821.81;5050463;28;20029;-80
2022/03/05 05:28:48;;;;;;;42.13;18.58;;;;;;;-1.91;79.69;101824.44;5050660;28;20067;-80
2022/03/05 05:31:13;;;;;;;40.80;18.67;;;;;;;-1.89;79.64;101833.19;5049741;28;20049;-80
2022/03/05 05:33:39;;;;;;;39.97;19.52;;;;;;;-1.88;79.56;101834.97;5055079;28;20032;-80
2022/03/05 05:36:05;;;;;;;35.83;18.33;;;;;;;-1.89;80.25;101843.72;5050035;28;20036;-81
2022/03/05 05:38:31;;;;;;;36.40;17.73;;;;;;;-1.91;79.74;101840.25;5045220;28;20027;-80
2022/03/05 05:40:56;;;;;;;41.38;19.63;;;;;;;-1.92;79.36;101843.75;5049822;28;20074;-80
2022/03/05 05:43:21;;;;;;;37.30;18.90;;;;;;;-1.95;79.22;101844.69;5032140;28;20377;-80
2022/03/05 05:45:47;;;;;;;40.67;19.90;;;;;;;-1.94;79.66;101842.91;5049009;28;20083;-81
2022/03/05 05:48:12;;;;;;;36.03;16.52;;;;;;;-1.99;79.69;101847.31;5050443;28;20037;-80
2022/03/05 05:50:37;;;;;;;37.88;17.67;;;;;;;-1.98;79.33;101851.69;5050516;28;20405;-80
2022/03/05 05:53:03;;;;;;;42.35;19.85;;;;;;;-1.96;79.95;101847.31;5032008;28;20036;-80
2022/03/05 05:55:28;;;;;;;35.22;19.50;;;;;;;-1.97;80.13;101854.31;5049102;28;20118;-80
2022/03/05 05:57:53;;;;;;;35.97;17.83;;;;;;;-1.92;80.04;101853.44;5040789;28;20029;-80
2022/03/05 06:00:19;;;;;;;38.55;16.98;;;;;;;-1.92;80.09;101853.44;5047283;28;20134;-80
2022/03/05 06:02:44;;;;;;;38.17;17.13;;;;;;;-1.92;79.62;101856.06;5050441;28;20385;-80
2022/03/05 06:05:09;;;;;;;42.22;18.48;;;;;;;-1.93;80.36;101844.66;5031352;28;20124;-80
2022/03/05 06:07:35;;;;;;;38.10;18.65;;;;;;;-1.95;80.16;101847.31;5050273;28;20028;-80
2022/03/05 06:10:00;;;;;;;44.35;17.95;;;;;;;-1.95;80.18;101851.69;5049643;28;20032;-80
2022/03/05 06:12:25;;;;;;;37.08;18.48;;;;;;;-1.94;79.71;101853.44;5049251;28;20025;-80
2022/03/05 06:14:50;;;;;;;37.33;18.10;;;;;;;-1.95;79.64;101847.31;5049831;28;20100;-80
2022/03/05 06:17:16;;;;;;;37.03;19.10;;;;;;;-1.98;79.71;101847.31;5025977;28;20033;-81
2022/03/05 06:19:42;;;;;;;38.03;17.05;;;;;;;-2.02;80.03;101840.31;5048996;28;20044;-80
2022/03/05 06:22:08;;;;;;;42.65;18.83;;;;;;;-2.04;80.23;101844.69;5030814;28;20039;-81
2022/03/05 06:24:33;;;;;;;39.22;18.05;;;;;;;-2.05;79.69;101844.72;5053858;28;20024;-80
2022/03/05 06:26:58;;;;;;;37.72;18.33;;;;;;;-2.07;79.63;101851.75;5047077;28;20041;-80
2022/03/05 06:29:24;;;;;;;38.10;17.77;;;;;;;-2.08;79.54;101842.09;5034147;28;20056;-80
2022/03/05 06:31:49;;;;;;;37.45;16.50;;;;;;;-2.09;79.77;101853.50;5055221;28;20037;-80
2022/03/05 06:34:14;;;;;;;42.88;19.67;;;;;;;-2.13;80.23;101858.78;5039154;28;20036;-80
2022/03/05 06:36:39;;;;;;;38.22;16.70;;;;;;;-2.13;80.27;101857.91;5058349;28;20059;-80
2022/03/05 06:39:05;;;;;;;39.85;18.70;;;;;;;-2.15;80.56;101868.47;5043196;28;20063;-80
2022/03/05 06:41:30;;;;;;;39.38;19.13;;;;;;;-2.14;80.46;101862.31;5050278;28;20472;-80
2022/03/05 06:43:55;;;;;;;38.17;18.67;;;;;;;-2.12;80.26;101860.53;5058260;28;20605;-81
2022/03/05 06:46:20;;;;;;;38.97;17.17;;;;;;;-2.08;80.12;101863.16;5028566;28;20029;-81
2022/03/05 06:48:46;;;;;;;34.35;16.70;;;;;;;-2.07;80.32;101860.53;5049033;28;20029;-81
2022/03/05 06:51:12;;;;;;;42.65;18.92;;;;;;;-2.04;79.96;101863.13;5030640;28;20040;-80
2022/03/05 06:53:37;;;;;;;44.25;19.38;;;;;;;-2.00;80.46;101864.03;5049110;28;20707;-81
2022/03/05 06:56:03;;;;;;;40.85;17.85;;;;;;;-1.93;80.33;101860.47;5046849;28;20028;-80
2022/03/05 06:58:28;;;;;;;41.70;19.25;;;;;;;-1.89;80.29;101861.31;5013454;28;20033;-81
2022/03/05 07:00:54;;;;;;;38.30;17.95;;;;;;;-1.86;80.69;101862.19;5048265;28;20028;-80
2022/03/05 07:03:19;;;;;;;40.80;19.08;;;;;;;-1.83;79.88;101867.44;5054714;28;20114;-80
2022/03/05 07:05:44;;;;;;;41.22;18.90;;;;;;;-1.77;80.35;101871.81;5048042;28;20082;-80
2022/03/05 07:08:09;;;;;;;40.85;18.60;;;;;;;-1.70;80.37;101872.63;5031003;28;20484;-80
2022/03/05 07:10:35;;;;;;;39.90;20.13;;;;;;;-1.67;80.47;101875.25;5048582;28;20068;-81
2022/03/05 07:13:00;;;;;;;37.55;16.48;;;;;;;-1.63;80.21;101883.13;5048035;28;20028;-81
2022/03/05 07:15:26;;;;;;;42.25;19.25;;;;;;;-1.59;80.50;101881.34;5048994;28;20071;-81
2022/03/05 07:17:52;;;;;;;41.42;18.38;;;;;;;-1.56;80.51;101888.38;5032124;28;20396;-81
2022/03/05 07:20:20;;;;;;;36.38;17.67;;;;;;;-1.50;80.20;101885.69;5049119;28;20041;-81
2022/03/05 07:22:46;;;;;;;42.92;19.40;;;;;;;-1.46;80.32;101887.44;5049201;28;20136;-81
2022/03/05 07:25:12;;;;;;;41.72;19.02;;;;;;;-1.41;80.38;101885.63;5047193;28;20112;-80
2022/03/05 07:27:38;;;;;;;42.80;18.77;;;;;;;-1.34;80.01;101889.09;5048629;28;20035;-81
2022/03/05 07:30:04;;;;;;;42.35;18.13;;;;;;;-1.28;80.12;101889.06;5049469;28;20107;-80
2022/03/05 07:32:29;;;;;;;38.83;19.63;;;;;;;-1.24;79.68;101889.03;5030517;28;20115;-80
2022/03/05 07:34:54;;;;;;;37.47;17.98;;;;;;;-1.19;79.88;101883.69;5051741;28;20052;-80
2022/03/05 07:37:20;;;;;;;42.75;18.88;;;;;;;-1.14;79.79;101884.56;5030714;28;20052;-81
2022/03/05 07:39:45;;;;;;;37.42;18.00;;;;;;;-1.07;79.88;101888.91;5031286;28;20025;-80
2022/03/05 07:42:10;;;;;;;38.13;19.08;;;;;;;-1.02;79.53;101890.63;5046144;28;20040;-80
2022/03/05 07:44:36;;;;;;;36.42;17.58;;;;;;;-0.99;79.32;101883.56;5014110;28;20041;-80
2022/03/05 07:47:02;;;;;;;46.42;21.48;;;;;;;-0.93;79.40;101891.41;5031949;28;20033;-80
2022/03/05 07:49:27;;;;;;;40.28;19.60;;;;;;;-0.87;79.49;101882.56;5014432;28;20031;-80
2022/03/05 07:51:52;;;;;;;44.50;22.52;;;;;;;-0.83;79.32;101876.38;5048741;28;20103;-80
2022/03/05 07:54:18;;;;;;;47.13;20.90;;;;;;;-0.75;79.16;101881.56;5030995;28;20043;-80
2022/03/05 07:56:43;;;;;;;44.53;22.70;;;;;;;-0.69;78.73;101885.91;5047909;28;20033;-80
2022/03/05 07:59:09;;;;;;;43.03;21.33;;;;;;;-0.62;78.74;101892.88;5030505;28;20025;-81
2022/03/05 08:01:34;;;;;;;42.90;21.20;;;;;;;-0.56;78.75;101899.00;5030889;28;20033;-80
2022/03/05 08:03:59;;;;;;;40.72;20.55;;;;;;;-0.50;78.85;101907.72;5031402;28;20029;-81
2022/03/05 08:06:25;;;;;;;46.40;22.90;;;;;;;-0.44;78.90;101908.56;5029516;28;20045;-80
2022/03/05 08:08:52;;;;;;;41.50;20.50;;;;;;;-0.38;78.19;101908.50;5032100;28;20057;-81
2022/03/05 08:11:17;;;;;;;46.13;22.60;;;;;;;-0.29;78.13;101911.91;5049638;28;20071;-81
2022/03/05 08:13:42;;;;;;;39.85;20.17;;;;;;;-0.23;77.52;101912.72;5033673;28;20025;-81
2022/03/05 08:16:08;;;;;;;44.67;23.27;;;;;;;-0.16;77.37;101917.94;5051253;28;20033;-80
2022/03/05 08:18:33;;;;;;;36.97;19.15;;;;;;;-0.12;77.13;101922.28;5051837;28;20557;-81
2022/03/05 08:20:58;;;;;;;37.75;19.90;;;;;;;-0.06;76.86;101914.28;5029303;28;20043;-81
2022/03/05 08:23:23;;;;;;;44.10;20.33;;;;;;;0.01;76.43;101925.66;5051691;28;20050;-81
2022/03/05 08:25:49;;;;;;;40.65;19.23;;;;;;;0.06;76.24;101918.53;5032615;28;20033;-80
2022/03/05 08:28:17;;;;;;;43.72;21.95;;;;;;;0.11;75.94;101925.53;5032842;28;20490;-80
2022/03/05 08:30:42;;;;;;;42.10;22.05;;;;;;;0.19;76.28;101919.28;5053142;28;20083;-81
2022/03/05 08:33:07;;;;;;;44.85;22.17;;;;;;;0.26;76.18;101927.09;5054999;28;20041;-80
2022/03/05 08:35:33;;;;;;;37.22;20.65;;;;;;;0.31;75.78;101924.41;5053825;28;20447;-80
2022/03/05 08:37:58;;;;;;;39.40;21.17;;;;;;;0.39;75.54;101921.66;5017980;28;20037;-80
2022/03/05 08:40:23;;;;;;;38.97;18.98;;;;;;;0.45;75.54;101918.94;5032146;28;20053;-81
2022/03/05 08:42:49;;;;;;;43.63;21.42;;;;;;;0.50;75.18;101925.03;5032230;28;20037;-80
2022/03/05 08:45:15;;;;;;;34.88;18.83;;;;;;;0.55;74.72;101920.53;5033339;28;20033;-81
2022/03/05 08:47:41;;;;;;;38.60;20.20;;;;;;;0.60;74.44;101921.38;5050851;28;20035;-80
2022/03/05 08:50:08;;;;;;;43.38;22.92;;;;;;;0.66;75.30;101923.91;5051148;28;20091;-80
2022/03/05 08:52:36;;;;;;;37.00;21.50;;;;;;;0.73;74.76;101921.16;5033134;28;20036;-80
2022/03/05 08:55:06;;;;;;;44.72;21.98;;;;;;;0.80;74.29;101925.47;5049727;28;20580;-81
2022/03/05 08:57:31;;;;;;;39.83;20.05;;;;;;;0.83;74.66;101921.00;5050180;28;20036;-82
2022/03/05 08:59:57;;;;;;;39.47;19.77;;;;;;;0.89;74.01;101921.81;5033646;28;20403;-81
2022/03/05 09:02:22;;;;;;;41.42;20.67;;;;;;;0.95;74.08;101921.72;5052912;28;20029;-80
2022/03/05 09:04:47;;;;;;;42.63;19.92;;;;;;;1.02;73.64;101924.22;5053740;28;20459;-81
2022/03/05 09:07:12;;;;;;;42.78;20.02;;;;;;;1.08;73.57;101928.56;5016639;28;20103;-83
2022/03/05 09:09:38;;;;;;;43.38;20.23;;;;;;;1.15;73.30;101926.69;5050685;28;20025;-82
2022/03/05 09:12:04;;;;;;;41.85;22.60;;;;;;;1.21;73.09;101934.53;5033516;28;20468;-82
2022/03/05 09:14:29;;;;;;;41.33;20.88;;;;;;;1.29;72.37;101927.34;5051419;28;20021;-80
2022/03/05 09:16:56;;;;;;;42.55;20.10;;;;;;;1.31;72.06;101922.88;5050727;28;20086;-80
2022/03/05 09:19:22;;;;;;;41.67;21.25;;;;;;;1.36;72.25;101928.97;5032378;28;20031;-81
2022/03/05 09:21:47;;;;;;;47.60;22.65;;;;;;;1.40;72.46;101916.53;5046447;28;20067;-82
2022/03/05 09:24:12;;;;;;;42.00;21.23;;;;;;;1.49;71.79;101918.16;5051170;28;20036;-81
2022/03/05 09:26:38;;;;;;;35.90;18.75;;;;;;;1.54;71.56;101917.16;5050099;28;20021;-81
2022/03/05 09:29:03;;;;;;;38.28;20.75;;;;;;;1.57;70.31;101910.94;5050856;28;20116;-80
2022/03/05 09:31:28;;;;;;;39.85;20.33;;;;;;;1.62;70.43;101911.72;5032758;28;20060;-79
2022/03/05 09:33:54;;;;;;;44.13;21.30;;;;;;;1.69;70.27;101908.06;5032599;28;20032;-79
2022/03/05 09:36:19;;;;;;;41.08;21.85;;;;;;;1.74;70.15;101906.19;5050317;28;20158;-80
2022/03/05 09:38:44;;;;;;;40.67;19.00;;;;;;;1.83;69.65;101906.91;5033361;28;20021;-81
2022/03/05 09:41:10;;;;;;;41.22;21.00;;;;;;;1.92;69.68;101914.69;5022067;28;20052;-81
2022/03/05 09:43:36;;;;;;;39.13;18.58;;;;;;;1.98;69.11;101911.91;5013922;28;20044;-81
2022/03/05 09:46:02;;;;;;;40.95;21.80;;;;;;;2.06;69.42;101914.41;5030418;28;20188;-80
2022/03/05 09:48:29;;;;;;;35.28;19.88;;;;;;;2.11;69.02;101907.25;5039385;28;20108;-79
2022/03/05 09:50:56;;;;;;;38.75;20.75;;;;;;;2.18;69.28;101918.56;5044629;28;20013;-79
2022/03/05 09:53:30;;;;;;;41.63;20.52;;;;;;;2.24;68.33;101913.13;5028492;28;20510;-79
2022/03/05 09:55:56;;;;;;;40.17;20.63;;;;;;;2.34;68.15;101905.84;5047076;28;20119;-81
2022/03/05 09:58:21;;;;;;;42.05;21.08;;;;;;;2.41;68.20;101905.69;5032382;28;20103;-81
2022/03/05 10:00:47;;;;;;;38.85;20.52;;;;;;;2.51;67.41;101911.66;5048443;28;20029;-82
2022/03/05 10:03:13;;;;;;;46.65;22.20;;;;;;;2.56;66.35;101911.56;5031548;28;20033;-80
2022/03/05 10:05:39;;;;;;;39.30;19.88;;;;;;;2.62;66.49;101909.66;5049403;28;20504;-79
2022/03/05 10:08:20;;;;;;;40.88;21.50;;;;;;;2.70;65.96;101913.91;5050110;28;20083;-78
2022/03/05 10:10:49;;;;;;;40.33;19.13;;;;;;;2.79;65.58;101903.91;5036600;28;20020;-80
2022/03/05 10:13:33;;;;;;;38.90;21.17;;;;;;;2.85;64.63;101910.00;5045493;28;20056;-80
2022/03/05 10:16:00;;;;;;;41.83;21.02;;;;;;;2.93;64.16;101908.06;5026939;28;20047;-80
2022/03/05 10:18:34;;;;;;;37.03;20.30;;;;;;;3.02;65.21;101906.97;5049102;28;20025;-80
2022/03/05 10:21:01;;;;;;;37.70;22.38;;;;;;;3.08;65.68;101909.47;5041347;28;20119;-80
2022/03/05 10:23:30;;;;;;;40.30;21.60;;;;;;;3.15;66.32;101900.41;5047567;28;20040;-80
2022/03/05 10:25:55;;;;;;;37.20;20.90;;;;;;;3.22;66.19;101898.47;5048646;28;20040;-82
2022/03/05 10:28:23;;;;;;;41.15;19.98;;;;;;;3.29;65.81;101897.41;5049230;28;20447;-81
2022/03/05 10:30:51;;;;;;;39.35;20.35;;;;;;;3.35;64.39;101897.22;5030833;28;20506;-82
2022/03/05 10:33:32;;;;;;;42.78;22.48;;;;;;;3.41;64.65;101902.41;5032289;28;20017;-81
2022/03/05 10:36:00;;;;;;;37.47;20.90;;;;;;;3.44;62.34;101902.31;5045873;28;20024;-81
2022/03/05 10:38:44;;;;;;;40.78;19.40;;;;;;;3.52;62.48;101906.56;5031945;28;20052;-81
2022/03/05 10:41:10;;;;;;;33.42;17.42;;;;;;;3.54;61.84;101904.72;5048465;28;20032;-81
2022/03/05 10:43:35;;;;;;;36.47;19.25;;;;;;;3.60;61.41;101904.56;5049554;28;20847;-81
2022/03/05 10:46:01;;;;;;;34.20;18.48;;;;;;;3.64;60.71;101906.22;5050338;28;20077;-81
2022/03/05 10:48:29;;;;;;;37.08;18.42;;;;;;;3.72;60.07;101901.56;5031518;28;20037;-81
2022/03/05 10:50:56;;;;;;;38.95;20.27;;;;;;;3.79;60.35;101903.16;5049358;28;20032;-81
2022/03/05 10:53:41;;;;;;;42.42;19.52;;;;;;;3.88;60.28;101904.69;5031816;28;20115;-81
2022/03/05 10:56:24;;;;;;;42.85;21.33;;;;;;;4.01;61.04;101907.84;5049088;28;20401;-78
2022/03/05 10:59:04;;;;;;;35.10;17.92;;;;;;;4.06;59.04;101903.28;5013296;28;20111;-80
2022/03/05 11:01:31;;;;;;;44.42;20.27;;;;;;;4.14;58.71;101906.59;5045106;28;20040;-80
2022/03/05 11:03:57;;;;;;;36.13;19.08;;;;;;;4.20;57.54;101905.50;5062670;28;20468;-81
2022/03/05 11:06:23;;;;;;;37.25;20.05;;;;;;;4.25;58.05;101908.06;5059237;28;20130;-80
2022/03/05 11:08:50;;;;;;;38.58;18.63;;;;;;;4.34;62.15;101898.00;5030692;28;20029;-80
2022/03/05 11:11:16;;;;;;;37.17;21.90;;;;;;;4.40;60.63;101898.75;5059927;28;20032;-80